Latest Weather Observations for Camooweal

IDQ60801

Issued at 7:32 am EST Monday 8 February 2016 (issued every 30 minutes, with the page automatically refreshed every 10 minutes)

About weather observations | Map of weather stations | Latest weather observations for QLD | Other Formats
Station Details ID: 037010 Name: CAMOOWEAL TOWNSHIP Lat: -19.92 Lon: 138.12 Height: 231.2 m
Data from the previous 72 hours. | See also: Recent months at Camooweal
Date/Time
EST
Temp
°C
App
Temp
°C
Dew
Point
Rel
Hum
%
Delta-T
°C
Wind Press
QNH
hPa
Press
MSL
hPa
Rain
since 9 am
mm
Dir
 
Spd
km/h
Gust
km/h
Spd
kts
Gust
kts
08/07:30am 27.3 28.4 19.6 62 5.0 S 13 17 7 9 1010.4 1008.7 0.0
08/07:00am 25.3 27.2 19.7 71 3.7 SSW 9 11 5 6 1010.1 1008.4 0.0
08/06:30am 24.9 27.0 19.3 71 3.6 SSW 7 9 4 5 1009.6 1007.9 0.0
08/06:00am 25.1 26.7 19.2 70 3.8 SSW 9 11 5 6 1009.3 1007.6 0.0
08/05:30am 25.2 27.2 19.1 69 3.9 SSW 7 9 4 5 1009.1 1007.4 0.0
08/05:00am 25.9 29.1 18.8 65 4.6 CALM 0 0 0 0 1009.2 1007.5 0.0
08/04:30am 26.9 28.6 18.5 60 5.4 SSW 7 11 4 6 1009.1 1007.4 0.0
08/04:00am 27.9 28.5 18.6 57 6.0 S 13 19 7 10 1008.9 1007.2 0.0
08/03:30am 28.4 29.0 18.5 55 6.4 SSE 13 19 7 10 1008.8 1007.1 0.0
08/03:00am 28.8 28.5 18.3 53 6.8 SSE 17 22 9 12 1008.8 1007.1 0.0
08/02:30am 29.0 28.9 17.8 50 7.2 SSE 15 20 8 11 1009.0 1007.3 0.0
08/02:00am 29.5 29.3 17.7 49 7.6 S 15 20 8 11 1009.2 1007.5 0.0
08/01:30am 29.8 29.6 17.6 48 7.8 S 15 20 8 11 1009.5 1007.8 0.0
08/01:00am 30.0 30.1 17.5 47 8.0 S 13 20 7 11 1009.7 1008.0 0.0
08/12:30am 30.4 30.2 17.5 46 8.3 SSE 15 22 8 12 1009.9 1008.2 0.0
08/12:00am 30.9 30.3 17.6 45 8.6 S 17 24 9 13 1010.0 1008.3 0.0
 
Date/Time
EST
Temp
°C
App
Temp
°C
Dew
Point
Rel
Hum
%
Delta-T
°C
Wind Press
QNH
hPa
Press
MSL
hPa
Rain
since 9 am
mm
Dir
 
Spd
km/h
Gust
km/h
Spd
kts
Gust
kts
07/11:30pm 31.2 30.6 17.5 44 8.8 SSE 17 26 9 14 1010.2 1008.5 0.0
07/11:00pm 31.7 30.2 17.6 43 9.1 S 22 28 12 15 1009.9 1008.2 0.0
07/10:30pm 32.1 30.2 16.8 40 9.8 S 22 32 12 17 1009.7 1008.0 0.0
07/10:00pm 32.6 30.4 16.0 36 10.5 SSE 22 32 12 17 1009.2 1007.5 0.0
07/09:30pm 33.2 30.5 15.7 35 11.0 S 24 33 13 18 1009.0 1007.3 0.0
07/09:00pm 33.9 31.7 14.9 32 11.9 S 20 26 11 14 1008.6 1006.9 0.0
07/08:30pm 34.7 31.6 14.6 30 12.5 SSE 24 35 13 19 1008.1 1006.4 0.0
07/08:00pm 35.2 32.8 14.5 29 12.9 SSE 20 30 11 16 1007.6 1005.8 0.0
07/07:30pm 36.0 33.1 14.1 27 13.6 SSE 22 33 12 18 1007.2 1005.4 0.0
07/07:00pm 36.8 35.1 13.5 24 14.4 SSE 15 20 8 11 1006.7 1004.9 0.0
07/06:30pm 37.1 36.2 13.8 25 14.5 E 11 20 6 11 1006.2 1004.4 0.0
07/06:00pm 37.5 37.5 13.5 24 14.9 SE 6 15 3 8 1005.7 1004.0 0.0
07/05:30pm 37.8 35.5 13.1 23 15.2 SE 17 26 9 14 1005.7 1004.0 0.0
07/05:00pm 37.4 35.0 12.8 23 15.1 SE 17 30 9 16 1005.6 1003.9 0.0
07/04:30pm 38.3 36.3 12.8 22 15.7 ESE 15 20 8 11 1005.6 1003.9 0.0
07/04:00pm 38.4 36.2 12.2 21 16.0 S 15 20 8 11 1005.8 1004.1 0.0
07/03:30pm 38.9 37.3 14.0 23 15.6 SSE 15 24 8 13 1006.0 1004.3 0.0
07/03:00pm 38.4 37.5 13.6 23 15.5 E 11 20 6 11 1006.5 1004.7 0.0
07/02:30pm 38.2 36.0 13.4 23 15.4 ESE 17 32 9 17 1006.8 1005.0 0.0
07/02:00pm 38.3 37.2 14.2 24 15.2 SE 13 20 7 11 1007.0 1005.2 0.0
07/01:30pm 38.0 36.6 13.3 23 15.3 S 13 26 7 14 1007.4 1005.6 0.0
07/01:00pm 37.3 35.1 12.0 22 15.4 SSW 15 28 8 15 1007.7 1005.9 0.0
07/12:30pm 37.1 34.8 11.8 22 15.3 S 15 30 8 16 1008.1 1006.4 0.0
07/12:00pm 36.1 32.8 11.0 22 15.0 SSE 19 30 10 16 1008.4 1006.7 0.0
07/11:30am 35.7 33.7 12.6 25 14.1 SE 15 26 8 14 1008.7 1007.0 0.0
07/11:00am 34.9 32.5 13.7 28 13.1 SE 19 26 10 14 1009.0 1007.3 0.0
07/10:30am 34.7 32.8 15.1 31 12.3 SE 19 26 10 14 1009.2 1007.5 0.0
07/10:00am 33.0 31.5 16.8 38 10.4 SE 20 30 11 16 1009.0 1007.3 0.0
07/09:30am 31.8 29.6 16.9 40 9.5 SSE 24 30 13 16 1009.0 1007.3 0.0
07/09:00am 31.1 29.3 15.5 39 9.8 SSE 19 26 10 14 1008.9 1007.2 0.0
07/08:30am 29.6 28.0 13.8 38 9.6 SSE 15 20 8 11 1008.7 1007.0 0.0
07/08:00am 27.1 27.2 14.5 46 7.6 S 7 11 4 6 1008.7 1007.0 0.0
07/07:30am 23.4 24.3 16.2 64 4.4 S 6 9 3 5 1008.4 1006.7 0.0
07/07:00am 21.4 23.2 15.5 69 3.6 CALM 0 0 0 0 1007.8 1006.0 0.0
07/06:30am 21.1 22.6 14.7 67 3.8 CALM 0 0 0 0 1007.5 1005.7 0.0
07/06:00am 21.8 23.2 14.4 63 4.4 CALM 0 0 0 0 1007.0 1005.2 0.0
07/05:30am 22.0 23.3 14.1 61 4.7 CALM 0 0 0 0 1006.9 1005.1 0.0
07/05:00am 22.5 23.9 14.4 60 4.8 CALM 0 0 0 0 1006.8 1005.0 0.0
07/04:30am 22.3 24.0 15.2 64 4.3 CALM 0 0 0 0 1006.6 1004.8 0.0
07/04:00am 22.3 24.0 15.2 64 4.3 CALM 0 0 0 0 1006.3 1004.5 0.0
07/03:30am 22.5 24.3 15.4 64 4.3 CALM 0 0 0 0 1006.2 1004.4 0.0
07/03:00am 23.5 25.3 15.5 60 4.9 CALM 0 0 0 0 1006.3 1004.5 0.0
07/02:30am 23.3 24.7 14.3 57 5.4 CALM 0 0 0 0 1006.6 1004.8 0.0
07/02:00am 24.3 25.4 13.5 51 6.4 CALM 0 0 0 0 1006.6 1004.8 0.0
07/01:30am 24.9 25.8 12.8 47 7.1 CALM 0 0 0 0 1006.9 1005.1 0.0
07/01:00am 25.5 26.3 12.7 45 7.5 CALM 0 0 0 0 1007.2 1005.4 0.0
07/12:30am 25.8 26.6 12.6 44 7.7 CALM 0 0 0 0 1007.5 1005.7 0.0
07/12:00am 26.2 26.4 13.0 44 7.8 SSW 4 7 2 4 1007.6 1005.8 0.0
 
Date/Time
EST
Temp
°C
App
Temp
°C
Dew
Point
Rel
Hum
%
Delta-T
°C
Wind Press
QNH
hPa
Press
MSL
hPa
Rain
since 9 am
mm
Dir
 
Spd
km/h
Gust
km/h
Spd
kts
Gust
kts
06/11:30pm 27.1 27.9 12.7 41 8.5 CALM 0 0 0 0 1007.8 1006.0 0.0
06/11:00pm 27.6 27.0 11.6 37 9.3 SSE 6 9 3 5 1007.9 1006.2 0.0
06/10:30pm 27.8 27.1 11.4 36 9.5 SSE 6 9 3 5 1007.8 1006.0 0.0
06/10:00pm 28.5 26.4 11.1 34 10.1 S 13 15 7 8 1007.4 1005.6 0.0
06/09:30pm 28.7 27.0 11.3 34 10.1 SSW 11 17 6 9 1006.8 1005.0 0.0
06/09:00pm 29.9 28.0 11.9 33 10.6 SW 13 19 7 10 1006.4 1004.6 0.0
06/08:30pm 30.2 30.7 11.7 32 10.9 CALM 0 2 0 1 1006.0 1004.3 0.0
06/08:00pm 31.3 31.1 10.6 28 12.0 SE 2 7 1 4 1005.7 1004.0 0.0
06/07:30pm 32.2 31.0 10.3 26 12.7 SE 7 9 4 5 1005.3 1003.6 0.0
06/07:00pm 34.2 32.8 9.4 22 14.3 SE 7 11 4 6 1005.0 1003.3 0.0
06/06:30pm 35.6 33.7 9.2 20 15.3 S 9 15 5 8 1004.7 1003.0 0.0
06/06:00pm 35.5 33.0 8.3 19 15.6 S 11 19 6 10 1004.3 1002.6 0.0
06/05:30pm 36.1 33.6 9.6 20 15.4 S 13 20 7 11 1004.3 1002.6 0.0
06/05:00pm 35.7 33.9 9.3 20 15.3 SSE 9 22 5 12 1004.1 1002.4 0.0
06/04:30pm 35.6 33.9 8.4 19 15.5 WSW 7 15 4 8 1004.4 1002.7 0.0
06/04:00pm 35.5 33.4 8.3 19 15.6 SSW 9 20 5 11 1004.5 1002.8 0.0
06/03:30pm 35.5 32.8 9.1 20 15.2 W 13 22 7 12 1004.8 1003.1 0.0
06/03:00pm 35.5 33.8 9.8 21 15.0 SSW 9 22 5 12 1005.2 1003.5 0.0
06/02:30pm 35.4 32.5 9.7 21 15.0 SW 15 22 8 12 1005.5 1003.8 0.0
06/02:00pm 34.7 32.8 10.5 23 14.3 SSW 11 20 6 11 1005.8 1004.1 0.0
06/01:30pm 34.8 34.0 11.2 24 14.0 SW 6 20 3 11 1006.2 1004.4 0.0
06/01:00pm 34.1 32.8 10.0 23 14.0 SSW 7 15 4 8 1006.7 1004.9 0.0
06/12:30pm 33.8 32.0 11.0 25 13.4 E 11 17 6 9 1007.0 1005.2 0.0
06/12:00pm 33.7 32.3 10.9 25 13.4 SE 9 20 5 11 1007.1 1005.3 0.0
06/11:30am 33.3 30.1 11.2 26 13.0 S 19 28 10 15 1007.3 1005.5 0.0
06/11:00am 33.0 29.3 11.5 27 12.8 S 22 37 12 20 1007.6 1005.8 0.0
06/10:30am 32.4 28.8 10.4 26 12.8 S 20 30 11 16 1007.8 1006.0 0.0
06/10:00am 31.1 27.5 10.4 28 12.0 S 20 32 11 17 1007.8 1006.0 0.0
06/09:30am 29.7 25.9 9.8 29 11.3 S 20 26 11 14 1007.8 1006.0 0.0
06/09:00am 27.4 24.9 9.7 33 10.0 SSW 13 19 7 10 1007.6 1005.8 0.0
06/08:30am 25.3 22.4 9.6 37 8.7 SSW 15 20 8 11 1007.4 1005.6 0.0
06/08:00am 22.7 21.4 12.6 53 5.8 SSW 11 15 6 8 1007.2 1005.4 0.0
06/07:30am 20.1 19.8 12.8 63 4.2 SW 6 7 3 4 1006.9 1005.1 0.0
06/07:00am 18.8 19.7 12.8 68 3.4 CALM 0 0 0 0 1006.6 1004.8 0.0
06/06:30am 18.5 19.2 12.3 67 3.5 CALM 0 0 0 0 1006.3 1004.5 0.0
06/06:00am 19.2 19.6 12.5 65 3.8 WSW 2 7 1 4 1005.9 1004.2 0.0
06/05:30am 19.1 19.5 12.6 66 3.7 SW 2 9 1 5 1005.5 1003.8 0.0
06/05:00am 19.4 19.0 12.9 66 3.7 SW 7 11 4 6 1005.3 1003.6 0.0
06/04:30am 19.4 20.3 12.9 66 3.7 CALM 0 0 0 0 1005.4 1003.7 0.0
06/04:00am 19.5 20.4 12.8 65 3.8 CALM 0 2 0 1 1005.4 1003.7 0.0
06/03:30am 19.7 19.2 12.7 64 4.0 SSW 7 9 4 5 1005.6 1003.9 0.0
06/03:00am 20.4 20.2 13.1 63 4.2 SW 6 9 3 5 1005.8 1004.1 0.0
06/02:30am 20.4 20.2 12.9 62 4.3 SW 6 7 3 4 1006.2 1004.4 0.0
06/02:00am 21.2 21.4 12.9 59 4.8 SW 4 9 2 5 1006.6 1004.8 0.0
06/01:30am 21.3 21.0 12.7 58 4.9 SSW 6 7 3 4 1006.8 1005.0 0.0
06/01:00am 21.5 21.0 12.6 57 5.1 SSW 7 9 4 5 1007.2 1005.4 0.0
06/12:30am 22.6 21.5 12.0 51 6.0 SSW 9 11 5 6 1007.4 1005.6 0.0
06/12:00am 22.9 21.6 11.3 48 6.6 SSW 9 11 5 6 1007.7 1005.9 0.0
 
Date/Time
EST
Temp
°C
App
Temp
°C
Dew
Point
Rel
Hum
%
Delta-T
°C
Wind Press
QNH
hPa
Press
MSL
hPa
Rain
since 9 am
mm
Dir
 
Spd
km/h
Gust
km/h
Spd
kts
Gust
kts
05/11:30pm 24.7 22.5 10.9 42 7.8 S 13 17 7 9 1007.8 1006.0 0.0
05/11:00pm 25.1 22.6 10.9 41 8.1 S 15 19 8 10 1007.9 1006.2 0.0
05/10:30pm 24.2 22.3 11.9 46 7.1 SSW 13 15 7 8 1007.7 1005.9 0.0
05/10:00pm 25.1 24.0 12.0 44 7.6 SSW 9 13 5 7 1007.6 1005.8 0.0
05/09:30pm 26.6 24.3 10.3 36 9.2 SSW 13 17 7 9 1007.4 1005.6 0.0
05/09:00pm 28.1 25.1 9.4 31 10.5 S 15 20 8 11 1007.1 1005.3 0.0
05/08:30pm 28.1 25.4 10.3 33 10.1 S 15 19 8 10 1007.0 1005.2 0.0
05/08:00pm 29.2 26.8 9.9 30 11.0 S 13 15 7 8 1006.7 1004.9 0.0
05/07:30pm 30.8 27.5 9.6 27 12.1 S 17 24 9 13 1006.5 1004.7 0.0
05/07:00pm 32.0 28.3 9.5 25 12.9 S 19 24 10 13 1005.9 1004.2 0.0
05/06:30pm 32.8 29.1 9.6 24 13.3 S 19 30 10 16 1005.5 1003.8 0.0
05/06:00pm 33.3 28.8 8.7 22 14.0 SSW 22 35 12 19 1005.1 1003.4 0.0
05/05:30pm 34.0 30.1 9.3 22 14.2 SW 20 30 11 16 1004.9 1003.2 0.0
05/05:00pm 34.2 30.5 9.4 22 14.3 SSW 19 28 10 15 1004.7 1003.0 0.0
05/04:30pm 34.1 30.5 10.7 24 13.8 SSE 20 32 11 17 1004.8 1003.1 0.0
05/04:00pm 33.8 30.0 9.8 23 13.9 SSE 20 28 11 15 1005.0 1003.3 0.0
05/03:30pm 33.9 29.5 10.5 24 13.7 S 24 37 13 20 1005.3 1003.6 0.0
05/03:00pm 33.4 29.5 9.4 23 13.8 SSE 20 35 11 19 1005.8 1004.1 0.0
05/02:30pm 33.5 29.2 10.8 25 13.3 S 24 39 13 21 1006.2 1004.4 0.0
05/02:00pm 33.1 28.5 9.8 24 13.5 S 24 37 13 20 1006.6 1004.8 0.0
05/01:30pm 33.1 27.9 10.4 25 13.2 SSW 28 43 15 23 1007.0 1005.2 0.0
05/01:00pm 32.5 28.3 9.9 25 13.1 SSE 22 37 12 20 1007.6 1005.8 0.0
05/12:30pm 32.5 28.1 10.5 26 12.8 SSE 24 35 13 19 1008.0 1006.3 0.0
05/12:00pm 31.5 26.2 9.7 26 12.5 SSE 28 37 15 20 1008.5 1006.8 0.0
05/11:30am 31.3 25.8 10.6 28 12.0 SSE 30 39 16 21 1008.8 1007.1 0.0
05/11:00am 31.1 26.8 12.0 31 11.3 SSE 26 35 14 19 1009.2 1007.5 0.0
05/10:30am 29.4 23.5 10.5 31 10.8 SSE 32 43 17 23 1009.4 1007.7 0.0
05/10:00am 28.7 23.2 11.7 35 9.9 SSE 32 41 17 22 1009.5 1007.8 0.0
05/09:30am 27.5 21.8 11.1 36 9.4 SSE 32 43 17 23 1009.3 1007.6 0.0
05/09:16am 26.8 21.8 10.9 37 9.1 SSE 28 46 15 25 1009.3 1007.6 0.0
05/09:00am 26.6 22.0 12.3 41 8.4 SSE 28 39 15 21 1009.3 1007.6 0.2
05/08:30am 25.2 21.2 13.1 47 7.1 S 26 35 14 19 1009.0 1007.3 0.2
05/08:00am 23.5 20.7 14.2 56 5.5 S 22 35 12 19 1008.7 1007.0 0.2

Other Formats:

Comma delimited format used in spreadsheet applications
http://www.bom.gov.au/fwo/IDQ60801/IDQ60801.94255.axf

JavaScript Object Notation format (JSON) in row-major order
http://www.bom.gov.au/fwo/IDQ60801/IDQ60801.94255.json